Time;durP1;ratioP1;P1;durP2;ratioP2;P2;SDS_P1;SDS_P2;PMS_P1;PMS_P2;Temp;Humidity;BMP_temperature;BMP_pressure;BME280_temperature;BME280_humidity;BME280_pressure;Samples;Min_cycle;Max_cycle;Signal;HPM_P1;HPM_P2
2023/03/11 00:01:50;;;;;;;47.93;23.13;;;;;;;4.75;100.00;97828.55;5096474;56;1138849;-77
2023/03/11 00:06:57;;;;;;;49.77;25.83;;;;;;;4.69;100.00;97833.09;5104265;56;1141050;-77
2023/03/11 00:12:04;;;;;;;45.12;24.50;;;;;;;4.71;100.00;97835.08;5143027;55;1141011;-75
2023/03/11 00:17:10;;;;;;;48.52;24.92;;;;;;;4.68;100.00;97815.25;5165209;55;1186538;-79
2023/03/11 00:22:16;;;;;;;50.67;25.33;;;;;;;4.69;100.00;97817.38;5113032;55;1139157;-77
2023/03/11 00:27:22;;;;;;;40.03;21.30;;;;;;;4.64;100.00;97819.13;5117280;56;1138930;-76
2023/03/11 00:32:27;;;;;;;36.63;21.23;;;;;;;4.50;100.00;97815.70;5096829;56;1138926;-74
2023/03/11 00:37:33;;;;;;;33.80;18.87;;;;;;;4.41;100.00;97810.05;5096226;56;1140995;-79
2023/03/11 00:42:39;;;;;;;35.80;20.03;;;;;;;4.34;100.00;97811.59;5116172;56;1140897;-77
2023/03/11 00:47:45;;;;;;;32.27;19.03;;;;;;;4.36;100.00;97806.56;5096465;56;1141131;-74
2023/03/11 00:52:52;;;;;;;52.40;25.27;;;;;;;4.36;100.00;97807.05;5102703;55;1138844;-75
2023/03/11 00:58:05;;;;;;;47.80;24.35;;;;;;;4.31;100.00;97803.55;5181803;55;1180817;-77
2023/03/11 01:03:12;;;;;;;42.53;21.70;;;;;;;4.29;100.00;97799.42;4994687;57;1241985;-76
2023/03/11 01:08:18;;;;;;;40.77;21.43;;;;;;;4.32;100.00;97793.42;5018716;56;1138908;-75
2023/03/11 01:13:25;;;;;;;41.63;22.53;;;;;;;4.30;100.00;97794.53;5096418;56;1140871;-78
2023/03/11 01:18:33;;;;;;;50.47;26.10;;;;;;;4.34;100.00;97786.25;5076626;56;1141553;-77
2023/03/11 01:23:41;;;;;;;44.70;24.77;;;;;;;4.40;100.00;97789.61;5095122;56;1175019;-75
2023/03/11 01:28:48;;;;;;;48.07;24.90;;;;;;;4.38;100.00;97782.87;4972648;56;1240076;-75
2023/03/11 01:33:55;;;;;;;39.42;22.40;;;;;;;4.30;100.00;97784.89;4955941;56;1141960;-78
2023/03/11 01:39:00;;;;;;;40.55;22.42;;;;;;;4.24;100.00;97779.78;4963708;57;1266071;-76
2023/03/11 01:44:07;;;;;;;45.67;23.25;;;;;;;4.22;100.00;97784.81;5094802;56;1228125;-75
2023/03/11 01:49:14;;;;;;;41.37;23.47;;;;;;;4.21;100.00;97780.55;5093263;56;1243976;-79
2023/03/11 01:54:24;;;;;;;43.27;24.53;;;;;;;4.18;100.00;97791.30;5103649;56;1243513;-76
2023/03/11 01:59:35;;;;;;;43.50;24.10;;;;;;;4.11;100.00;97779.30;5120392;55;1141023;-78
2023/03/11 02:04:42;;;;;;;46.97;24.73;;;;;;;4.03;100.00;97783.11;5096371;56;1138854;-76
2023/03/11 02:09:48;;;;;;;51.93;26.13;;;;;;;3.95;100.00;97784.81;5114367;56;1138779;-77
2023/03/11 02:14:54;;;;;;;55.10;27.97;;;;;;;3.88;100.00;97793.22;5012341;56;1140898;-78
2023/03/11 02:20:20;;;;;;;42.30;22.83;;;;;;;3.85;100.00;97797.91;5034230;56;1141027;-78
2023/03/11 02:26:03;;;;;;;36.10;20.97;;;;;;;3.86;100.00;97804.30;5092409;56;1138758;-76
2023/03/11 02:31:09;;;;;;;39.60;21.37;;;;;;;3.76;100.00;97809.23;5097004;56;1138931;-77
2023/03/11 02:36:37;;;;;;;35.43;20.00;;;;;;;3.46;100.00;97815.50;5116495;56;1138774;-77
2023/03/11 02:41:47;;;;;;;28.92;16.60;;;;;;;3.46;100.00;97815.50;5094298;56;1244748;-75
2023/03/11 02:46:53;;;;;;;23.23;12.70;;;;;;;3.39;100.00;97814.40;5071562;56;1180498;-78
2023/03/11 02:52:00;;;;;;;27.87;15.10;;;;;;;3.32;100.00;97822.47;5090169;56;1140986;-77
2023/03/11 02:57:06;;;;;;;24.95;12.90;;;;;;;3.31;100.00;97828.17;5126788;56;1138759;-77
2023/03/11 03:02:12;;;;;;;28.98;15.32;;;;;;;3.23;100.00;97831.13;5106225;56;1138801;-79
2023/03/11 03:07:19;;;;;;;21.40;12.47;;;;;;;3.15;100.00;97841.80;5106437;56;1138879;-79
2023/03/11 03:12:25;;;;;;;26.73;12.60;;;;;;;3.11;100.00;97853.47;5124702;56;1140961;-77
2023/03/11 03:17:31;;;;;;;19.00;11.77;;;;;;;3.05;100.00;97867.57;5084564;56;1138957;-78
2023/03/11 03:22:38;;;;;;;17.63;9.30;;;;;;;2.90;100.00;97867.15;5139034;55;1138881;-78
2023/03/11 03:27:45;;;;;;;14.60;8.70;;;;;;;2.76;100.00;97871.42;5224458;55;1136780;-76
2023/03/11 03:32:51;;;;;;;14.73;8.60;;;;;;;2.77;100.00;97873.91;5204230;55;1136986;-77
2023/03/11 03:37:59;;;;;;;11.13;7.20;;;;;;;2.77;100.00;97876.99;5204235;55;1136748;-77
2023/03/11 03:43:05;;;;;;;7.00;5.37;;;;;;;2.76;100.00;97891.83;5172523;55;1140769;-78
2023/03/11 03:48:12;;;;;;;9.40;5.92;;;;;;;2.61;100.00;97896.25;5105402;56;1135009;-78
2023/03/11 03:53:20;;;;;;;6.23;4.80;;;;;;;2.58;100.00;97903.06;5013580;57;1134908;-76
2023/03/11 03:58:27;;;;;;;7.97;4.70;;;;;;;2.60;100.00;97907.17;5013402;57;1134903;-78
2023/03/11 04:03:34;;;;;;;5.40;4.73;;;;;;;2.58;100.00;97912.20;5016675;57;1134768;-78
2023/03/11 04:08:41;;;;;;;5.67;4.07;;;;;;;2.53;100.00;97923.50;5012901;57;1134647;-77
2023/03/11 04:13:49;;;;;;;5.23;4.03;;;;;;;2.44;100.00;97938.17;4990789;57;1134624;-77
2023/03/11 04:18:55;;;;;;;4.90;4.40;;;;;;;2.42;100.00;97942.22;4989014;56;1134826;-79
2023/03/11 04:24:01;;;;;;;4.97;3.27;;;;;;;2.48;100.00;97945.58;5002330;57;1134655;-77
2023/03/11 04:29:09;;;;;;;5.12;3.62;;;;;;;2.47;100.00;97956.14;5020657;56;1134683;-79
2023/03/11 04:34:17;;;;;;;5.73;3.43;;;;;;;2.41;100.00;97967.13;5033395;56;1134620;-77
2023/03/11 04:39:23;;;;;;;5.33;3.53;;;;;;;2.35;100.00;97981.49;5045194;56;1134618;-76
2023/03/11 04:44:29;;;;;;;5.13;3.80;;;;;;;2.38;100.00;97986.94;5013674;56;1134604;-78
2023/03/11 04:49:36;;;;;;;3.37;3.07;;;;;;;2.31;100.00;98006.17;5013713;56;1134602;-78
2023/03/11 04:54:42;;;;;;;5.07;3.70;;;;;;;2.30;100.00;98024.08;5033367;57;1134699;-74
2023/03/11 04:59:48;;;;;;;24.50;11.23;;;;;;;2.13;100.00;98029.07;5013945;56;1134889;-77
2023/03/11 05:04:56;;;;;;;15.90;8.80;;;;;;;2.07;100.00;98046.03;5013858;56;1138953;-76
2023/03/11 05:10:04;;;;;;;12.75;7.75;;;;;;;2.07;100.00;98054.69;5019437;56;1147454;-77
2023/03/11 05:15:11;;;;;;;13.20;7.97;;;;;;;1.99;100.00;98071.41;5117369;56;1136896;-78
2023/03/11 05:20:17;;;;;;;6.60;4.67;;;;;;;1.89;100.00;98084.85;5055573;56;1137033;-77
2023/03/11 05:25:23;;;;;;;8.60;5.97;;;;;;;1.81;100.00;98105.98;5097318;56;1134672;-76
2023/03/11 05:30:30;;;;;;;7.53;5.70;;;;;;;1.69;100.00;98115.11;5117344;56;1134993;-77
2023/03/11 05:35:36;;;;;;;8.70;5.97;;;;;;;1.66;100.00;98118.45;5066541;55;1134717;-75
2023/03/11 05:40:42;;;;;;;10.43;7.40;;;;;;;1.55;100.00;98134.09;5014054;56;1134683;-75
2023/03/11 05:45:48;;;;;;;13.47;8.80;;;;;;;1.45;100.00;98150.92;5032874;57;1136787;-79
2023/03/11 05:50:54;;;;;;;13.83;9.23;;;;;;;1.32;100.00;98162.77;5013413;56;1136709;-75
2023/03/11 05:56:02;;;;;;;18.73;10.85;;;;;;;1.30;100.00;98172.47;5014180;56;1136726;-74
2023/03/11 06:01:17;;;;;;;10.68;7.37;;;;;;;1.38;100.00;98189.63;5032860;56;1138971;-74
2023/03/11 06:06:23;;;;;;;11.10;7.10;;;;;;;1.32;100.00;98210.11;5012708;56;1137077;-77
2023/03/11 06:11:29;;;;;;;14.67;8.33;;;;;;;1.22;100.00;98234.70;5043105;56;1136780;-78
2023/03/11 06:16:35;;;;;;;13.37;7.27;;;;;;;1.19;100.00;98252.35;5111051;56;1136796;-79
2023/03/11 06:21:41;;;;;;;20.07;8.40;;;;;;;1.22;100.00;98262.55;5064477;56;1136745;-77
2023/03/11 06:26:50;;;;;;;9.57;5.97;;;;;;;1.17;100.00;98281.10;5097634;56;1136613;-77
2023/03/11 06:31:57;;;;;;;4.87;4.10;;;;;;;1.08;100.00;98299.99;5065556;56;1134871;-77
2023/03/11 06:37:03;;;;;;;31.20;14.97;;;;;;;1.05;100.00;98314.56;5042211;56;1134867;-74
2023/03/11 06:42:13;;;;;;;14.33;6.90;;;;;;;1.08;100.00;98326.49;5094641;55;1138950;-76
2023/03/11 06:47:19;;;;;;;10.70;7.67;;;;;;;1.00;100.00;98350.50;5097102;56;1136766;-76
2023/03/11 06:52:26;;;;;;;12.30;7.03;;;;;;;1.01;100.00;98376.89;5125343;55;1136654;-78
2023/03/11 06:57:34;;;;;;;18.80;7.63;;;;;;;1.02;100.00;98401.50;5056484;55;1136716;-76
2023/03/11 07:02:44;;;;;;;9.87;5.80;;;;;;;1.03;100.00;98414.88;4995093;57;1136817;-77
2023/03/11 07:07:54;;;;;;;12.43;5.73;;;;;;;0.96;100.00;98436.23;5033988;57;1134680;-77
2023/03/11 07:13:01;;;;;;;24.90;13.33;;;;;;;0.93;100.00;98456.80;4978416;56;1136942;-75
2023/03/11 07:18:07;;;;;;;6.90;5.43;;;;;;;0.92;100.00;98474.66;5061370;55;1149208;-77
2023/03/11 07:23:14;;;;;;;7.25;5.35;;;;;;;0.88;100.00;98495.82;5136031;55;1134656;-75
2023/03/11 07:28:20;;;;;;;9.33;6.57;;;;;;;0.79;100.00;98507.69;5066941;56;1134700;-78
2023/03/11 07:33:26;;;;;;;7.93;5.33;;;;;;;0.76;100.00;98520.94;5081239;55;1134871;-75
2023/03/11 07:38:31;;;;;;;8.80;5.10;;;;;;;0.78;100.00;98529.91;5117669;56;1134704;-74
2023/03/11 07:43:38;;;;;;;9.60;5.30;;;;;;;0.78;100.00;98548.13;5097386;56;1134908;-75
2023/03/11 07:48:44;;;;;;;25.23;9.37;;;;;;;0.78;100.00;98559.36;4958484;56;1134738;-77
2023/03/11 07:53:52;;;;;;;58.70;18.80;;;;;;;0.81;100.00;98572.16;5067896;56;1136736;-76
2023/03/11 07:59:00;;;;;;;333.67;197.43;;;;;;;0.78;100.00;98581.47;5066695;56;1138886;-78
2023/03/11 08:04:08;;;;;;;31.62;25.30;;;;;;;0.81;100.00;98590.37;5066277;55;1148400;-80
2023/03/11 08:09:14;;;;;;;12.00;9.08;;;;;;;0.83;100.00;98611.93;5086320;57;1139372;-79
2023/03/11 08:14:21;;;;;;;18.40;12.75;;;;;;;0.88;100.00;98630.67;5146261;55;1136942;-77
2023/03/11 08:19:27;;;;;;;12.30;8.13;;;;;;;0.88;100.00;98657.16;5109709;55;1138827;-78
2023/03/11 08:24:33;;;;;;;17.17;7.43;;;;;;;0.77;100.00;98670.88;5136948;55;1136830;-78
2023/03/11 08:29:38;;;;;;;7.30;4.83;;;;;;;0.82;100.00;98692.69;5076366;56;1136669;-76
2023/03/11 08:34:44;;;;;;;15.67;7.23;;;;;;;0.82;100.00;98707.00;5109721;55;1134624;-77
2023/03/11 08:39:51;;;;;;;7.30;6.07;;;;;;;0.72;100.00;98717.20;5100269;55;1136973;-77
2023/03/11 08:44:57;;;;;;;5.47;4.23;;;;;;;0.64;100.00;98728.09;5141026;55;1195186;-78
2023/03/11 08:50:09;;;;;;;4.97;3.67;;;;;;;0.62;100.00;98738.23;5151837;56;1134850;-75
2023/03/11 08:55:23;;;;;;;4.65;4.17;;;;;;;0.61;100.00;98750.91;5082453;56;1134969;-73
2023/03/11 09:00:25;;;;;;;3.70;2.87;;;;;;;0.61;100.00;98778.22;5087205;56;1135066;-79
2023/03/11 09:05:31;;;;;;;9.60;5.40;;;;;;;0.57;100.00;98797.08;4980244;57;1134674;-77
2023/03/11 09:10:37;;;;;;;13.30;6.90;;;;;;;0.60;100.00;98805.16;5019886;56;1134816;-76
2023/03/11 09:15:44;;;;;;;12.33;7.57;;;;;;;0.56;100.00;98825.32;5087045;56;1136748;-76
2023/03/11 09:20:50;;;;;;;20.40;12.00;;;;;;;0.56;100.00;98845.30;5026640;56;1136891;-76
2023/03/11 09:25:56;;;;;;;16.97;9.90;;;;;;;0.61;100.00;98855.75;5066097;56;1138876;-77
2023/03/11 09:31:02;;;;;;;32.42;17.92;;;;;;;0.68;100.00;98867.45;5059462;55;1136834;-79
2023/03/11 09:36:12;;;;;;;18.80;9.97;;;;;;;0.76;100.00;98880.46;5002827;56;1138812;-76
2023/03/11 09:41:47;;;;;;;9.30;5.83;;;;;;;0.80;100.00;98890.55;4984208;57;1136717;-74
2023/03/11 09:47:22;;;;;;;9.87;3.87;;;;;;;0.84;100.00;98913.32;4984278;56;1134851;-75
2023/03/11 09:52:41;;;;;;;17.45;6.83;;;;;;;0.81;100.00;98922.16;4985209;57;1134749;-78
2023/03/11 09:57:47;;;;;;;17.10;7.70;;;;;;;0.75;100.00;98934.27;5003997;56;1137299;-74
2023/03/11 10:02:53;;;;;;;8.27;3.90;;;;;;;0.72;100.00;98942.26;4972596;57;1136855;-73
2023/03/11 10:08:35;;;;;;;8.60;3.60;;;;;;;0.72;100.00;98957.87;4905899;58;1134853;-76
2023/03/11 10:14:03;;;;;;;8.23;4.93;;;;;;;0.67;100.00;98962.52;4906938;57;1134667;-74
2023/03/11 10:19:22;;;;;;;9.20;6.33;;;;;;;0.68;100.00;98980.63;5025089;57;1134733;-74
2023/03/11 10:24:44;;;;;;;20.28;14.58;;;;;;;0.74;100.00;98983.33;5086592;57;1134702;-79
2023/03/11 10:30:04;;;;;;;111.57;63.67;;;;;;;0.82;100.00;98997.16;5095990;56;1138802;-76
2023/03/11 10:35:21;;;;;;;84.37;50.60;;;;;;;0.89;100.00;99004.97;5095995;56;1140858;-75
2023/03/11 10:40:37;;;;;;;29.07;16.80;;;;;;;0.95;100.00;99008.47;5096232;56;1138771;-75
2023/03/11 10:45:47;;;;;;;20.17;11.10;;;;;;;0.94;100.00;99022.41;5065820;56;1138946;-77
2023/03/11 10:51:21;;;;;;;16.30;7.90;;;;;;;0.99;100.00;99029.02;5012629;57;1138874;-76
2023/03/11 10:56:36;;;;;;;9.20;6.43;;;;;;;0.98;100.00;99034.31;5013260;56;1137116;-75
2023/03/11 11:01:47;;;;;;;14.27;6.87;;;;;;;0.96;100.00;99050.02;4993671;56;1134891;-77
2023/03/11 11:06:53;;;;;;;15.87;8.40;;;;;;;0.93;100.00;99062.38;5057410;56;1137128;-76
2023/03/11 11:12:06;;;;;;;17.97;10.57;;;;;;;0.92;100.00;99073.25;5094039;55;1136852;-80
2023/03/11 11:17:33;;;;;;;13.70;8.20;;;;;;;1.00;100.00;99077.55;5035978;56;1138833;-79
2023/03/11 11:22:39;;;;;;;12.95;7.45;;;;;;;1.07;100.00;99093.61;5155159;55;1136984;-76
2023/03/11 11:28:02;;;;;;;12.73;6.80;;;;;;;1.12;100.00;99103.75;5129186;55;1136795;-75
2023/03/11 11:33:35;;;;;;;26.23;15.43;;;;;;;1.04;100.00;99107.67;5096704;55;1136898;-75
2023/03/11 11:38:41;;;;;;;85.83;49.90;;;;;;;0.96;100.00;99116.86;5067472;56;1138991;-73
2023/03/11 11:43:59;;;;;;;79.63;47.87;;;;;;;0.92;100.00;99122.71;5096571;56;1138866;-77
2023/03/11 11:49:31;;;;;;;42.77;25.17;;;;;;;0.93;100.00;99131.36;5065416;56;1138972;-74
2023/03/11 11:55:20;;;;;;;40.50;31.70;;;;;;;0.90;100.00;99153.23;5012679;56;1138770;-79
2023/03/11 12:00:38;;;;;;;178.40;106.10;;;;;;;0.90;100.00;99153.23;5012185;57;1138896;-79
2023/03/11 12:05:57;;;;;;;6.50;4.50;;;;;;;0.93;100.00;99166.50;4769266;59;1143136;-75
2023/03/11 12:11:09;;;;;;;9.17;5.67;;;;;;;0.83;100.00;99160.17;4804266;59;1134852;-80
2023/03/11 12:16:34;;;;;;;6.53;5.23;;;;;;;0.77;100.00;99178.28;4772348;59;1135098;-75
2023/03/11 12:21:47;;;;;;;6.00;4.43;;;;;;;0.65;100.00;99189.41;4742054;60;1134678;-79
2023/03/11 12:26:56;;;;;;;10.75;6.95;;;;;;;0.64;100.00;99202.05;4741798;60;1134913;-73
2023/03/11 12:32:04;;;;;;;54.90;46.70;;;;;;;0.74;100.00;99205.80;4812917;59;1136886;-72
2023/03/11 12:37:15;;;;;;;9.38;8.28;;;;;;;0.92;100.00;99211.20;4802235;58;1139061;-77
2023/03/11 12:42:26;;;;;;;46.13;30.67;;;;;;;1.22;100.00;99214.24;4917421;57;1134775;-72
2023/03/11 12:47:32;;;;;;;30.27;16.52;;;;;;;1.62;100.00;99229.11;4918273;58;1138856;-79
2023/03/11 12:52:45;;;;;;;48.40;30.73;;;;;;;1.89;100.00;99238.29;4946754;58;1138936;-74
2023/03/11 12:57:57;;;;;;;58.75;32.70;;;;;;;1.90;100.00;99256.07;4934218;58;1138866;-76
2023/03/11 13:03:31;;;;;;;77.87;45.10;;;;;;;1.81;100.00;99261.41;5022357;57;1138936;-77
2023/03/11 13:08:46;;;;;;;6.90;5.00;;;;;;;1.83;100.00;99267.83;4899634;58;1138853;-75
2023/03/11 13:13:52;;;;;;;14.00;8.08;;;;;;;1.89;100.00;99270.88;4915191;58;1134680;-72
2023/03/11 13:19:02;;;;;;;13.07;6.37;;;;;;;1.88;100.00;99286.61;4965259;57;1136729;-76
2023/03/11 13:24:32;;;;;;;8.60;4.97;;;;;;;1.90;100.00;99297.31;5046860;57;1136821;-76
2023/03/11 13:30:01;;;;;;;6.00;4.42;;;;;;;1.78;100.00;99313.72;5080864;56;1134647;-74
2023/03/11 13:35:18;;;;;;;6.00;3.02;;;;;;;1.66;100.00;99325.73;4974992;57;1134903;-74
2023/03/11 13:40:40;;;;;;;15.10;6.15;;;;;;;1.45;100.00;99333.97;4999254;56;1134832;-75
2023/03/11 13:46:01;;;;;;;7.53;4.90;;;;;;;1.38;100.00;99349.95;4981972;57;1136681;-77
2023/03/11 13:51:14;;;;;;;8.47;5.10;;;;;;;1.40;100.00;99360.28;4978417;56;1135022;-75
2023/03/11 13:56:28;;;;;;;22.27;8.77;;;;;;;1.35;100.00;99377.51;4972781;56;1134709;-79
2023/03/11 14:01:34;;;;;;;13.85;8.50;;;;;;;1.40;100.00;99379.83;4999451;57;1136737;-77
2023/03/11 14:06:40;;;;;;;7.53;3.10;;;;;;;1.69;100.00;99397.66;4979375;57;1136827;-72
2023/03/11 14:11:47;;;;;;;30.17;13.33;;;;;;;1.98;100.00;99403.30;4946180;57;1134788;-79
2023/03/11 14:16:53;;;;;;;18.10;8.57;;;;;;;1.98;100.00;99403.30;4937739;58;1138909;-74
2023/03/11 14:21:59;;;;;;;18.17;6.43;;;;;;;2.11;100.00;99417.73;4967525;58;1136791;-74
2023/03/11 14:27:09;;;;;;;13.78;4.12;;;;;;;2.13;100.00;99422.41;4907968;58;1137017;-73
2023/03/11 14:32:33;;;;;;;16.00;6.37;;;;;;;2.09;100.00;99430.03;4882545;58;1136985;-72
2023/03/11 14:37:39;;;;;;;6.17;3.02;;;;;;;2.11;100.00;99438.14;4947314;57;1136784;-73
2023/03/11 14:42:45;;;;;;;5.00;2.93;;;;;;;2.32;100.00;99442.97;4880463;58;1134633;-75
2023/03/11 14:47:56;;;;;;;7.27;3.83;;;;;;;2.38;100.00;99443.45;4918745;56;1134829;-72
2023/03/11 14:53:21;;;;;;;6.07;3.57;;;;;;;2.35;100.00;99461.05;4965150;57;1134896;-77
2023/03/11 14:58:36;;;;;;;8.68;4.37;;;;;;;2.29;100.00;99473.18;4892041;57;1134676;-77
2023/03/11 15:03:58;;;;;;;7.03;4.00;;;;;;;2.33;100.00;99476.80;4865833;58;1134664;-76
2023/03/11 15:09:13;;;;;;;8.27;3.90;;;;;;;2.28;100.00;99487.16;4935555;58;1134664;-72
2023/03/11 15:14:32;;;;;;;12.95;6.47;;;;;;;2.13;100.00;99491.52;4953426;58;1134740;-76
2023/03/11 15:19:37;;;;;;;16.07;8.17;;;;;;;2.04;100.00;99504.62;4919382;58;1136754;-76
2023/03/11 15:24:45;;;;;;;86.47;40.95;;;;;;;1.96;100.00;99513.83;4896353;57;1136740;-79
2023/03/11 15:29:54;;;;;;;66.13;31.97;;;;;;;1.88;100.00;99514.72;4980588;57;1138889;-84
2023/03/11 15:35:13;;;;;;;35.67;14.17;;;;;;;1.93;100.00;99530.95;4901518;57;1138940;-78
2023/03/11 15:40:28;;;;;;;10.17;5.37;;;;;;;1.91;100.00;99534.95;4865365;57;1139013;-75
2023/03/11 15:45:34;;;;;;;18.85;11.10;;;;;;;1.85;100.00;99539.20;4816233;59;1146209;-74
2023/03/11 15:50:52;;;;;;;23.40;10.80;;;;;;;1.76;100.00;99550.16;4894860;58;1138809;-76
2023/03/11 15:56:02;;;;;;;25.87;14.60;;;;;;;1.70;100.00;99538.31;4900834;58;1138957;-78
2023/03/11 16:01:10;;;;;;;13.10;7.07;;;;;;;1.65;100.00;99546.03;5034064;57;1138872;-77
2023/03/11 16:06:15;;;;;;;6.47;3.87;;;;;;;1.76;100.00;99564.04;4925884;57;1136835;-76
2023/03/11 16:11:23;;;;;;;5.75;3.02;;;;;;;1.97;100.00;99567.66;5050553;57;1134842;-77
2023/03/11 16:16:29;;;;;;;5.53;3.87;;;;;;;3.23;100.00;99578.75;5049035;56;1134750;-72
2023/03/11 16:21:45;;;;;;;10.73;4.73;;;;;;;3.23;100.00;99578.75;5067089;56;1134688;-75
2023/03/11 16:26:52;;;;;;;12.60;5.22;;;;;;;2.92;100.00;99581.95;5149957;55;1136746;-73
2023/03/11 16:31:58;;;;;;;21.15;8.70;;;;;;;2.36;100.00;99600.55;5172458;55;1136741;-77
2023/03/11 16:37:05;;;;;;;23.73;10.40;;;;;;;1.94;100.00;99612.16;5168588;55;1136780;-82
2023/03/11 16:42:12;;;;;;;13.23;5.10;;;;;;;1.65;100.00;99621.16;5152199;55;1138814;-82
2023/03/11 16:47:18;;;;;;;12.57;5.53;;;;;;;1.44;100.00;99627.99;5152108;55;1136898;-76
2023/03/11 16:52:24;;;;;;;15.87;6.40;;;;;;;1.29;100.00;99635.71;5079714;55;1136821;-74
2023/03/11 16:57:30;;;;;;;8.63;3.67;;;;;;;1.23;100.00;99645.14;5089624;56;1136773;-78
2023/03/11 17:02:37;;;;;;;7.43;3.67;;;;;;;1.18;100.00;99653.69;5135828;55;1134618;-78
2023/03/11 17:07:43;;;;;;;8.53;3.90;;;;;;;1.13;100.00;99655.68;5118247;55;1134636;-81
2023/03/11 17:12:49;;;;;;;9.03;4.27;;;;;;;1.07;100.00;99665.59;5097283;55;1134610;-73
2023/03/11 17:17:55;;;;;;;8.07;3.90;;;;;;;1.00;100.00;99680.22;4912054;57;1135340;-68
2023/03/11 17:23:02;;;;;;;10.20;4.57;;;;;;;0.98;100.00;99676.01;5120178;55;1134772;-73
2023/03/11 17:28:07;;;;;;;9.37;4.70;;;;;;;0.90;100.00;99684.23;5026930;57;1137050;-68
2023/03/11 17:33:13;;;;;;;7.70;4.23;;;;;;;0.86;100.00;99693.11;5006211;57;1134763;-70
2023/03/11 17:38:19;;;;;;;12.77;6.13;;;;;;;0.79;100.00;99694.33;5010488;56;1135150;-68
2023/03/11 17:43:25;;;;;;;19.50;6.70;;;;;;;0.74;100.00;99692.89;5010476;57;1136958;-67
2023/03/11 17:48:31;;;;;;;8.10;4.92;;;;;;;0.66;100.00;99701.91;4995958;56;1136868;-65
2023/03/11 17:53:38;;;;;;;5.57;3.27;;;;;;;0.65;100.00;99708.03;5076909;56;1134781;-69
2023/03/11 17:58:45;;;;;;;14.93;4.15;;;;;;;0.58;100.00;99709.27;5084387;56;1134637;-67
2023/03/11 18:03:51;;;;;;;6.90;3.17;;;;;;;0.58;100.00;99725.34;5073790;56;1137740;-74
2023/03/11 18:08:58;;;;;;;12.05;7.42;;;;;;;0.50;100.00;99718.36;5038804;56;1134731;-80
2023/03/11 18:14:04;;;;;;;6.87;4.08;;;;;;;0.56;100.00;99738.88;5003228;56;1137164;-79
2023/03/11 18:19:11;;;;;;;10.80;5.20;;;;;;;0.49;100.00;99738.33;5062616;56;1134903;-83
2023/03/11 18:24:17;;;;;;;4.43;3.87;;;;;;;0.48;100.00;99750.95;4931794;57;1137140;-80
2023/03/11 18:29:23;;;;;;;7.77;4.53;;;;;;;0.43;100.00;99748.20;4936765;57;1134906;-80
2023/03/11 18:34:30;;;;;;;9.17;4.53;;;;;;;0.42;100.00;99762.97;4912015;57;1134829;-79
2023/03/11 18:39:36;;;;;;;11.80;5.07;;;;;;;0.41;100.00;99770.84;4921149;57;1134855;-77
2023/03/11 18:44:42;;;;;;;5.40;3.80;;;;;;;0.35;100.00;99778.47;4893784;57;1136854;-75
2023/03/11 18:49:48;;;;;;;6.30;4.27;;;;;;;0.38;100.00;99778.78;4943277;58;1134789;-77
2023/03/11 18:54:55;;;;;;;8.57;4.83;;;;;;;0.34;100.00;99780.22;4955361;57;1134767;-78
2023/03/11 19:00:01;;;;;;;11.10;6.07;;;;;;;0.35;100.00;99783.66;4956601;57;1134796;-79
2023/03/11 19:05:08;;;;;;;11.70;5.12;;;;;;;0.33;100.00;99786.80;4961931;57;1136835;-74
2023/03/11 19:10:16;;;;;;;9.47;5.10;;;;;;;0.30;100.00;99790.87;4960251;57;1136973;-73
2023/03/11 19:15:22;;;;;;;11.03;4.03;;;;;;;0.28;100.00;99794.84;5048263;56;1134879;-78
2023/03/11 19:20:29;;;;;;;7.67;4.60;;;;;;;0.23;100.00;99799.86;5062581;56;1136737;-82
2023/03/11 19:25:36;;;;;;;12.00;5.63;;;;;;;0.21;100.00;99818.13;5092333;56;1134757;-75
2023/03/11 19:30:42;;;;;;;8.23;4.67;;;;;;;0.20;100.00;99824.70;5052549;56;1137110;-78
2023/03/11 19:35:55;;;;;;;8.83;4.43;;;;;;;0.16;100.00;99829.19;5050295;56;1135145;-75
2023/03/11 19:41:07;;;;;;;8.33;3.55;;;;;;;0.13;100.00;99831.95;4994951;56;1135605;-80
2023/03/11 19:46:20;;;;;;;8.07;5.07;;;;;;;0.09;100.00;99834.30;5033186;55;1134649;-78
2023/03/11 19:51:25;;;;;;;7.17;4.22;;;;;;;0.10;100.00;99845.09;5051893;56;1134609;-79
2023/03/11 19:56:31;;;;;;;10.63;4.13;;;;;;;0.08;100.00;99839.11;5032350;56;1134683;-72
2023/03/11 20:01:37;;;;;;;6.67;4.10;;;;;;;0.08;100.00;99851.27;5050067;56;1136922;-73
2023/03/11 20:06:43;;;;;;;6.23;3.83;;;;;;;0.08;100.00;99854.70;5022068;55;1134855;-75
2023/03/11 20:11:49;;;;;;;8.30;3.37;;;;;;;0.06;100.00;99856.53;4934651;57;1134759;-79
2023/03/11 20:16:54;;;;;;;6.90;4.27;;;;;;;0.05;100.00;99852.70;4958635;57;1135519;-78
2023/03/11 20:22:00;;;;;;;7.60;4.57;;;;;;;0.05;100.00;99853.99;4971558;56;1134825;-73
2023/03/11 20:27:06;;;;;;;7.33;4.00;;;;;;;0.03;100.00;99863.16;4917289;57;1134834;-83
2023/03/11 20:32:12;;;;;;;7.10;3.42;;;;;;;-0.06;100.00;99859.69;4958977;57;1134815;-76
2023/03/11 20:37:18;;;;;;;5.67;3.53;;;;;;;-0.06;100.00;99859.69;5003194;57;1136953;-82
2023/03/11 20:42:24;;;;;;;10.10;3.03;;;;;;;-0.06;100.00;99862.28;4860843;57;1136831;-70
2023/03/11 20:47:30;;;;;;;8.43;4.63;;;;;;;-0.09;100.00;99863.71;4898544;57;1139009;-70
2023/03/11 20:52:36;;;;;;;12.20;4.30;;;;;;;-0.09;100.00;99867.61;4995774;57;1136812;-66
2023/03/11 20:57:41;;;;;;;8.47;4.67;;;;;;;-0.11;100.00;99868.97;5013953;57;1138966;-67
2023/03/11 21:02:48;;;;;;;12.53;5.23;;;;;;;-0.15;100.00;99871.77;5077683;56;1137053;-72
2023/03/11 21:07:53;;;;;;;8.60;4.43;;;;;;;-0.17;100.00;99871.86;4908581;57;1139107;-69
2023/03/11 21:12:59;;;;;;;6.77;4.50;;;;;;;-0.19;100.00;99871.08;5072250;56;1136938;-67
2023/03/11 21:18:05;;;;;;;9.38;5.40;;;;;;;-0.14;100.00;99872.16;5051140;56;1242212;-71
2023/03/11 21:23:11;;;;;;;11.33;4.95;;;;;;;-0.09;100.00;99872.81;5096680;56;1136854;-74
2023/03/11 21:28:17;;;;;;;6.55;4.00;;;;;;;-0.08;100.00;99870.59;4980949;57;1139825;-71
2023/03/11 21:33:22;;;;;;;9.43;4.33;;;;;;;-0.06;100.00;99859.23;5016883;56;1136890;-68
2023/03/11 21:38:30;;;;;;;12.93;5.37;;;;;;;0.00;100.00;99851.63;5007355;57;1136848;-70
2023/03/11 21:43:37;;;;;;;7.58;4.53;;;;;;;0.03;100.00;99856.66;4991081;57;1136883;-69
2023/03/11 21:48:43;;;;;;;12.20;5.27;;;;;;;0.04;100.00;99859.65;5062239;56;1134830;-67
2023/03/11 21:53:49;;;;;;;8.20;4.43;;;;;;;0.05;100.00;99856.14;5028340;56;1136754;-69
2023/03/11 21:58:55;;;;;;;9.13;4.20;;;;;;;0.06;100.00;99850.03;4922504;56;1134824;-70
2023/03/11 22:04:01;;;;;;;8.83;4.07;;;;;;;0.07;100.00;99847.81;4886481;57;1134682;-70
2023/03/11 22:09:07;;;;;;;8.43;4.62;;;;;;;0.05;100.00;99849.64;4991082;56;1134871;-66
2023/03/11 22:14:13;;;;;;;4.63;3.13;;;;;;;0.06;100.00;99835.73;5099969;55;1135098;-66
2023/03/11 22:19:19;;;;;;;5.10;3.50;;;;;;;0.08;100.00;99835.66;5044371;56;1134754;-67
2023/03/11 22:24:25;;;;;;;3.47;2.27;;;;;;;0.09;100.00;99834.30;5081682;55;1135680;-67
2023/03/11 22:29:31;;;;;;;4.83;3.33;;;;;;;0.09;100.00;99836.05;5072228;56;1134840;-71
2023/03/11 22:34:37;;;;;;;8.00;4.83;;;;;;;0.09;100.00;99836.90;5088070;56;1134621;-67
2023/03/11 22:39:42;;;;;;;12.77;4.10;;;;;;;0.08;100.00;99835.21;5095620;56;1161429;-65
2023/03/11 22:44:48;;;;;;;7.90;4.47;;;;;;;0.07;100.00;99833.98;5112930;56;1136922;-66
2023/03/11 22:49:54;;;;;;;5.30;3.58;;;;;;;0.06;100.00;99832.28;5086513;56;1134694;-64
2023/03/11 22:55:00;;;;;;;7.17;4.23;;;;;;;0.06;100.00;99822.73;5088266;56;1134756;-66
2023/03/11 23:00:19;;;;;;;13.00;4.77;;;;;;;0.06;100.00;99823.19;5048439;55;1134960;-69
2023/03/11 23:05:25;;;;;;;6.20;3.83;;;;;;;0.04;100.00;99828.45;5107942;55;1136768;-65
2023/03/11 23:10:31;;;;;;;10.10;3.10;;;;;;;0.04;100.00;99819.35;5070201;55;1134719;-68
2023/03/11 23:15:38;;;;;;;4.10;2.62;;;;;;;0.04;100.00;99818.05;5063906;56;1136844;-69
2023/03/11 23:20:45;;;;;;;6.67;3.45;;;;;;;0.05;100.00;99806.75;5097377;56;1134781;-68
2023/03/11 23:25:52;;;;;;;5.97;2.08;;;;;;;0.04;100.00;99795.95;4999693;56;1134889;-67